Flight Track Log - Related Links

Times and Time Zones

All times are in EDT time to prevent confusion due to time zone crossing. See the G52617 flight status page for this flight to view local times or setup timezone preferences in your user account.

Time Position Orientation Groundspeed Altitude Reporting Facility
EDT Latitude Longitude Course Direction KTS MPH feet Rate Location/Type
Thu 08:38:00 PM 26.2596 107.2209 126° Southeast  Level Estimated
Thu 08:39:00 PM 26.2131 107.2907 127° Southeast  Level Estimated
Thu 08:40:00 PM 26.1664 107.3605 127° Southeast  Level Estimated
Thu 08:41:00 PM 26.1197 107.4302 127° Southeast  Level Estimated
Thu 08:42:00 PM 26.0730 107.4999 127° Southeast  Level Estimated
Thu 08:43:00 PM 26.0263 107.5695 127° Southeast  Level Estimated
Thu 08:44:00 PM 25.9795 107.6391 127° Southeast  Level Estimated
Thu 08:45:00 PM 25.9328 107.7086 127° Southeast  Level Estimated
Thu 08:46:00 PM 25.8859 107.7780 127° Southeast  Level Estimated
Thu 08:47:00 PM 25.8391 107.8474 127° Southeast  Level Estimated
Thu 08:48:00 PM 25.7922 107.9167 127° Southeast  Level Estimated
Thu 08:49:00 PM 25.7452 107.9860 127° Southeast  Level Estimated
Thu 08:50:00 PM 25.6983 108.0552 127° Southeast  Level Estimated
Thu 08:51:00 PM 25.6513 108.1244 127° Southeast  Level Estimated
Thu 08:52:00 PM 25.6042 108.1935 127° Southeast  Level Estimated
Thu 08:53:00 PM 25.5572 108.2626 127° Southeast  Level Estimated
Thu 08:54:00 PM 25.5101 108.3316 127° Southeast  Level Estimated
Thu 08:55:00 PM 25.4630 108.4006 127° Southeast  Level Estimated
Thu 08:56:00 PM 25.4158 108.4695 127° Southeast  Level Estimated
Thu 08:57:00 PM 25.3686 108.5383 127° Southeast  Level Estimated
Thu 08:58:00 PM 25.3214 108.6071 127° Southeast  Level Estimated
Thu 08:59:00 PM 25.2741 108.6758 127° Southeast  Level Estimated
Thu 09:00:00 PM 25.2269 108.7445 127° Southeast  Level Estimated
Thu 09:01:00 PM 25.1795 108.8131 127° Southeast  Level Estimated
Thu 09:02:00 PM 25.1322 108.8817 127° Southeast  Level Estimated
Thu 09:03:00 PM 25.0848 108.9502 127° Southeast  Level Estimated
Thu 09:04:00 PM 25.0374 109.0187 127° Southeast  Level Estimated
Thu 09:05:00 PM 24.9900 109.0871 127° Southeast  Level Estimated
Thu 09:06:00 PM 24.9425 109.1555 127° Southeast  Level Estimated
Thu 09:07:00 PM 24.8950 109.2238 127° Southeast  Level Estimated
Thu 09:08:00 PM 24.8474 109.2921 127° Southeast  Level Estimated
Thu 09:09:00 PM 24.7999 109.3603 128° Southeast  Level Estimated
Thu 09:10:00 PM 24.7523 109.4285 128° Southeast  Level Estimated
Thu 09:11:00 PM 24.7046 109.4966 128° Southeast  Level Estimated
Thu 09:12:00 PM 24.6570 109.5646 128° Southeast  Level Estimated
Thu 09:13:00 PM 24.6093 109.6326 128° Southeast  Level Estimated
Thu 09:14:00 PM 24.5616 109.7006 128° Southeast  Level Estimated
Thu 09:15:00 PM 24.5138 109.7684 128° Southeast  Level Estimated
Thu 09:16:00 PM 24.4660 109.8363 128° Southeast  Level Estimated
Thu 09:17:00 PM 24.4182 109.9041 128° Southeast  Level Estimated
Thu 09:18:00 PM 24.3704 109.9718 128° Southeast  Level Estimated
Thu 09:19:00 PM 24.3225 110.0395 128° Southeast  Level Estimated
Thu 09:20:00 PM 24.2746 110.1072 128° Southeast  Level Estimated
Thu 09:21:00 PM 24.2267 110.1748 128° Southeast  Level Estimated
Thu 09:22:00 PM 24.1787 110.2423 128° Southeast  Level Estimated
Thu 09:23:00 PM 24.1307 110.3098 128° Southeast  Level Estimated
Thu 09:24:00 PM 24.0827 110.3772 128° Southeast  Level Estimated
Thu 09:25:00 PM 24.0346 110.4446 128° Southeast  Level Estimated
Thu 09:26:00 PM 23.9865 110.5119 128° Southeast  Level Estimated
Thu 09:27:00 PM 23.9384 110.5792 128° Southeast  Level Estimated
Thu 09:28:00 PM 23.8903 110.6465 128° Southeast  Level Estimated
Thu 09:29:00 PM 23.8421 110.7136 128° Southeast  Level Estimated
Thu 09:30:00 PM 23.7939 110.7808 128° Southeast  Level Estimated
Thu 09:31:00 PM 23.7457 110.8479 128° Southeast  Level Estimated
Thu 09:32:00 PM 23.6975 110.9149 128° Southeast  Level Estimated
Thu 09:33:00 PM 23.6492 110.9819 128° Southeast  Level Estimated
Thu 09:34:00 PM 23.6008 111.0488 128° Southeast  Level Estimated
Thu 09:35:00 PM 23.5525 111.1157 128° Southeast  Level Estimated
Thu 09:36:00 PM 23.5041 111.1825 128° Southeast  Level Estimated
Thu 09:37:00 PM 23.4567 111.2481 128° Southeast  Level Estimated
Thu 09:38:00 PM 23.4567 111.2481 North  Level Estimated
Thu 09:39:00 PM 23.4567 111.2481 North  Level Estimated

Login

Don't have an account? Register now (free) for customized features, flight alerts, and more!